In Rescue
 
Open Full Screen Window  High Contrast Mode
Wind Gusting 00 knots
04
January 18, 2019 8:21 AM EST
Weather Information
Wind Direction
  280 °
Wind Speed
  04 kt (5 mph)
Wind Gust
  00 kt (0 mph)
Altimeter
30.00 in
Visibility
10 SM
Temperature
-07° C
19° F
Dewpoint
-11° C
12° F
Humidity
73%
1hr Rain Fall
00.00 in.
24hr Rain Fall
00.00 in.
Sky Condition
Scattered @ 4,100 ft
VFR

METAR KDRM 181321Z AUTO 28004KT 10SM SCT041 M07/M11 A3000 RMK AO2 T10731107

FAA Disclaimer: The data displayed is for advisory purposes only and is not to be used for flight planning or operations.